createdAt,value
2023-12-29T00:00:05.004Z,98656.44
2023-12-29T00:02:33.702Z,98652.13
2023-12-29T00:05:05.904Z,98645.13
2023-12-29T00:07:33.736Z,98641.41
2023-12-29T00:10:04.310Z,98642.47
2023-12-29T00:12:32.004Z,98641.41
2023-12-29T00:14:59.539Z,98647.56
2023-12-29T00:17:27.090Z,98652.13
2023-12-29T00:19:54.984Z,98646.75
2023-12-29T00:22:22.797Z,98647.56
2023-12-29T00:24:52.682Z,98641.41
2023-12-29T00:27:20.357Z,98642.22
2023-12-29T00:29:51.238Z,98630.69
2023-12-29T00:32:24.596Z,98636.84
2023-12-29T00:34:52.586Z,98638.72
2023-12-29T00:37:20.073Z,98637.09
2023-12-29T00:39:50.258Z,98641.41
2023-12-29T00:42:19.316Z,98637.91
2023-12-29T00:44:46.926Z,98637.91
2023-12-29T00:47:15.404Z,98639.78
2023-12-29T00:49:43.285Z,98635.22
2023-12-29T00:52:11.431Z,98640.59
2023-12-29T00:54:41.245Z,98644.09
2023-12-29T00:57:09.042Z,98646.75
2023-12-29T00:59:41.823Z,98653.19
2023-12-29T01:02:09.343Z,98651.31
2023-12-29T01:04:42.180Z,98649.44
2023-12-29T01:07:13.901Z,98654.00
2023-12-29T01:09:41.638Z,98660.16
2023-12-29T01:12:11.957Z,98658.53
2023-12-29T01:14:39.507Z,98655.88
2023-12-29T01:17:07.514Z,98657.50
2023-12-29T01:19:37.185Z,98654.00
2023-12-29T01:22:05.104Z,98649.44
2023-12-29T01:24:39.963Z,98644.09
2023-12-29T01:27:10.617Z,98634.41
2023-12-29T01:29:40.113Z,98640.81
2023-12-29T01:32:09.414Z,98639.78
2023-12-29T01:34:37.222Z,98637.09
2023-12-29T01:37:05.603Z,98647.56
2023-12-29T01:39:34.810Z,98637.09
2023-12-29T01:42:04.971Z,98640.59
2023-12-29T01:44:37.064Z,98639.78
2023-12-29T01:47:17.039Z,98629.06
2023-12-29T01:49:49.517Z,98629.06
2023-12-29T01:52:21.758Z,98629.06
2023-12-29T01:54:51.975Z,98629.06
2023-12-29T01:57:25.187Z,98618.34
2023-12-29T01:59:57.237Z,98628.00
2023-12-29T02:02:24.977Z,98621.00
2023-12-29T02:04:52.773Z,98621.00
2023-12-29T02:07:21.174Z,98619.34
2023-12-29T02:09:48.967Z,98611.09
2023-12-29T02:12:18.742Z,98612.97
2023-12-29T02:14:47.790Z,98607.59
2023-12-29T02:17:28.187Z,98614.59
2023-12-29T02:19:56.777Z,98612.72
2023-12-29T02:22:24.548Z,98606.56
2023-12-29T02:24:52.574Z,98603.88
2023-12-29T02:27:48.697Z,98603.88
2023-12-29T02:30:32.396Z,98610.84
2023-12-29T02:33:05.401Z,98598.50
2023-12-29T02:35:38.717Z,98595.03
2023-12-29T02:38:09.029Z,98594.22
2023-12-29T02:40:36.847Z,98603.06
2023-12-29T02:43:05.027Z,98603.28
2023-12-29T02:45:32.679Z,98591.75
2023-12-29T02:48:00.755Z,98595.22
2023-12-29T02:50:32.876Z,98591.53
2023-12-29T02:53:00.557Z,98596.03
2023-12-29T02:55:30.321Z,98595.22
2023-12-29T02:57:58.140Z,98607.59
2023-12-29T03:00:25.842Z,98583.69
2023-12-29T03:02:53.404Z,98579.16
2023-12-29T03:05:23.166Z,98574.59
2023-12-29T03:07:51.774Z,98580.81
2023-12-29T03:10:21.659Z,98595.22
2023-12-29T03:12:51.953Z,98599.56
2023-12-29T03:15:19.542Z,98596.03
2023-12-29T03:17:49.723Z,98585.56
2023-12-29T03:20:19.680Z,98575.44
2023-12-29T03:22:47.385Z,98572.75
2023-12-29T03:25:17.633Z,98575.44
2023-12-29T03:27:47.354Z,98567.41
2023-12-29T03:30:15.097Z,98570.09
2023-12-29T03:32:44.821Z,98565.75
2023-12-29T03:35:12.277Z,98562.25
2023-12-29T03:37:40.005Z,98557.69
2023-12-29T03:40:08.965Z,98563.06
2023-12-29T03:42:41.205Z,98557.69
2023-12-29T03:45:09.223Z,98565.75
2023-12-29T03:47:37.357Z,98566.00
2023-12-29T03:50:06.848Z,98556.88
2023-12-29T03:52:34.668Z,98568.41
2023-12-29T03:55:02.396Z,98576.25
2023-12-29T03:57:30.250Z,98579.16
2023-12-29T03:59:57.696Z,98572.97
2023-12-29T04:02:30.316Z,98560.38
2023-12-29T04:04:57.744Z,98560.16
2023-12-29T04:07:25.348Z,98557.47
2023-12-29T04:09:52.964Z,98560.16
2023-12-29T04:12:20.524Z,98561.78
2023-12-29T04:14:52.725Z,98560.97
2023-12-29T04:17:20.273Z,98554.00
2023-12-29T04:19:48.820Z,98560.97
2023-12-29T04:22:16.602Z,98551.06
2023-12-29T04:24:44.130Z,98551.88
2023-12-29T04:27:11.915Z,98544.84
2023-12-29T04:29:41.505Z,98554.53
2023-12-29T04:32:09.149Z,98552.28
2023-12-29T04:34:38.641Z,98556.59
2023-12-29T04:37:06.350Z,98559.03
2023-12-29T04:39:36.503Z,98562.09
2023-12-29T04:42:08.326Z,98562.91
2023-12-29T04:44:35.842Z,98552.19
2023-12-29T04:47:03.575Z,98556.59
2023-12-29T04:49:33.759Z,98560.88
2023-12-29T04:52:01.717Z,98574.69
2023-12-29T04:54:32.063Z,98574.09
2023-12-29T04:56:59.660Z,98582.94
2023-12-29T04:59:27.175Z,98577.38
2023-12-29T05:01:57.399Z,98580.25
2023-12-29T05:04:25.097Z,98574.91
2023-12-29T05:06:57.913Z,98575.72
2023-12-29T05:09:25.408Z,98566.25
2023-12-29T05:11:54.245Z,98575.38
2023-12-29T05:14:21.715Z,98573.50
2023-12-29T05:16:49.481Z,98578.28
2023-12-29T05:19:17.082Z,98581.53
2023-12-29T05:21:44.860Z,98583.28
2023-12-29T05:24:12.981Z,98576.19
2023-12-29T05:26:40.650Z,98571.41
2023-12-29T05:29:08.348Z,98567.09
2023-12-29T05:31:35.885Z,98570.47
2023-12-29T05:34:03.571Z,98578.53
2023-12-29T05:36:38.214Z,98563.97
2023-12-29T05:39:10.061Z,98577.84
2023-12-29T05:41:37.798Z,98574.59
2023-12-29T05:44:08.022Z,98579.38
2023-12-29T05:46:40.445Z,98573.31
2023-12-29T05:49:07.898Z,98572.03
2023-12-29T05:51:36.705Z,98574.59
2023-12-29T05:54:06.094Z,98583.88
2023-12-29T05:56:33.825Z,98568.50
2023-12-29T05:59:01.414Z,98570.34
2023-12-29T06:01:29.152Z,98572.00
2023-12-29T06:03:59.493Z,98589.84
2023-12-29T06:06:27.156Z,98580.41
2023-12-29T06:08:57.057Z,98587.63
2023-12-29T06:11:24.627Z,98583.31
2023-12-29T06:13:52.125Z,98579.44
2023-12-29T06:16:21.566Z,98572.69
2023-12-29T06:18:49.556Z,98568.38
2023-12-29T06:21:17.518Z,98580.25
2023-12-29T06:23:45.982Z,98572.47
2023-12-29T06:26:24.170Z,98586.44
2023-12-29T06:28:51.648Z,98581.06
2023-12-29T06:31:20.562Z,98575.72
2023-12-29T06:33:48.137Z,98583.06
2023-12-29T06:36:16.185Z,98576.44
2023-12-29T06:38:47.132Z,98577.13
2023-12-29T06:41:15.140Z,98555.66
2023-12-29T06:43:42.778Z,98562.75
2023-12-29T06:46:10.707Z,98564.97
2023-12-29T06:48:38.480Z,98556.81
2023-12-29T06:51:06.247Z,98559.25
2023-12-29T06:53:33.757Z,98551.22
2023-12-29T06:56:01.395Z,98557.66
2023-12-29T06:58:34.706Z,98564.63
2023-12-29T07:01:05.777Z,98561.25
2023-12-29T07:03:33.409Z,98571.53
2023-12-29T07:06:04.823Z,98566.97
2023-12-29T07:08:35.468Z,98568.84
2023-12-29T07:11:03.199Z,98567.22
2023-12-29T07:13:31.016Z,98565.69
2023-12-29T07:15:58.829Z,98566.16
2023-12-29T07:18:29.832Z,98548.19
2023-12-29T07:20:58.541Z,98556.03
2023-12-29T07:23:25.996Z,98553.00
2023-12-29T07:25:53.697Z,98560.81
2023-12-29T07:28:21.222Z,98564.19
2023-12-29T07:30:49.160Z,98558.22
2023-12-29T07:33:17.360Z,98552.88
2023-12-29T07:35:45.846Z,98553.81
2023-12-29T07:38:17.346Z,98556.47
2023-12-29T07:58:13.407Z,98558.88
2023-12-29T08:00:41.003Z,98559.13
2023-12-29T08:03:10.853Z,98567.53
2023-12-29T08:05:41.664Z,98563.81
2023-12-29T08:08:12.681Z,98562.63
2023-12-29T08:10:40.417Z,98555.91
2023-12-29T08:13:10.369Z,98563.69
2023-12-29T08:15:38.587Z,98561.72
2023-12-29T08:18:06.785Z,98567.44
2023-12-29T08:20:34.618Z,98560.53
2023-12-29T08:23:04.212Z,98562.75
2023-12-29T08:25:31.810Z,98575.38
2023-12-29T08:28:00.636Z,98572.56
2023-12-29T08:30:30.600Z,98570.91
2023-12-29T08:32:58.410Z,98570.91
2023-12-29T08:35:28.435Z,98568.38
2023-12-29T08:37:57.724Z,98570.81
2023-12-29T08:40:27.967Z,98576.19
2023-12-29T08:42:56.143Z,98577.47
2023-12-29T08:45:26.577Z,98577.47
2023-12-29T08:47:54.534Z,98582.00
2023-12-29T08:50:22.996Z,98583.28
2023-12-29T08:52:50.912Z,98579.91
2023-12-29T08:55:18.471Z,98585.31
2023-12-29T08:57:50.936Z,98583.88
2023-12-29T09:00:18.598Z,98587.56
2023-12-29T09:02:47.779Z,98590.03
2023-12-29T09:05:15.886Z,98593.34
2023-12-29T09:07:48.833Z,98590.25
2023-12-29T09:10:16.606Z,98587.66
2023-12-29T09:12:45.074Z,98590.94
2023-12-29T09:15:12.902Z,98585.88
2023-12-29T09:17:41.454Z,98595.75
2023-12-29T09:20:11.791Z,98592.09
2023-12-29T09:22:39.882Z,98587.06
2023-12-29T09:25:27.539Z,98589.16
2023-12-29T09:27:55.169Z,98590.44
2023-12-29T09:30:22.738Z,98589.97
2023-12-29T09:32:52.700Z,98588.34
2023-12-29T09:35:22.612Z,98597.47
2023-12-29T09:37:50.105Z,98605.72
2023-12-29T09:40:17.716Z,98596.19
2023-12-29T09:42:46.217Z,98598.75
2023-12-29T09:45:15.014Z,98599.78
2023-12-29T09:47:46.851Z,98605.53
2023-12-29T09:50:14.928Z,98610.53
2023-12-29T09:52:45.292Z,98610.19
2023-12-29T09:55:17.253Z,98610.31
2023-12-29T09:57:48.552Z,98610.91
2023-12-29T10:00:18.220Z,98626.50
2023-12-29T10:02:45.863Z,98615.94
2023-12-29T10:05:13.527Z,98613.13
2023-12-29T10:07:43.838Z,98611.50
2023-12-29T10:10:17.446Z,98610.63
2023-12-29T10:12:49.181Z,98598.81
2023-12-29T10:15:21.119Z,98603.03
2023-12-29T10:18:07.350Z,98603.41
2023-12-29T10:20:45.242Z,98595.66
2023-12-29T10:23:35.216Z,98592.50
2023-12-29T10:26:07.313Z,98579.78
2023-12-29T10:28:35.653Z,98592.00
2023-12-29T10:31:24.608Z,98590.19
2023-12-29T10:34:31.344Z,98580.81
2023-12-29T10:37:05.226Z,98569.75
2023-12-29T10:39:35.576Z,98573.13
2023-12-29T10:42:09.388Z,98564.63
2023-12-29T10:44:38.497Z,98566.38
2023-12-29T10:47:13.396Z,98565.75
2023-12-29T10:49:46.978Z,98556.53
2023-12-29T10:52:19.394Z,98550.38
2023-12-29T10:54:47.198Z,98543.59
2023-12-29T10:57:14.818Z,98545.22
2023-12-29T10:59:42.522Z,98539.84
2023-12-29T11:02:16.332Z,98541.25
2023-12-29T11:04:44.634Z,98536.56
2023-12-29T11:07:14.586Z,98530.34
2023-12-29T11:09:43.183Z,98537.59
2023-12-29T11:12:10.937Z,98534.91
2023-12-29T11:14:38.722Z,98536.19
2023-12-29T11:17:08.190Z,98530.00
2023-12-29T11:19:36.275Z,98523.00
2023-12-29T11:22:04.986Z,98525.69
2023-12-29T11:24:38.454Z,98530.47
2023-12-29T11:27:12.527Z,98532.69
2023-12-29T11:29:46.149Z,98532.91
2023-12-29T11:32:26.398Z,98533.59
2023-12-29T11:35:00.555Z,98527.44
2023-12-29T11:37:59.443Z,98520.66
2023-12-29T11:40:45.782Z,98527.69
2023-12-29T11:43:18.698Z,98527.69
2023-12-29T11:45:46.556Z,98516.22
2023-12-29T11:48:14.473Z,98518.56
2023-12-29T11:50:43.007Z,98511.31
2023-12-29T11:53:34.085Z,98508.41
2023-12-29T11:56:16.733Z,98500.94
2023-12-29T11:58:44.250Z,98502.22
2023-12-29T12:01:12.241Z,98502.34
2023-12-29T12:03:39.932Z,98503.16
2023-12-29T12:06:11.052Z,98494.53
2023-12-29T12:08:41.016Z,98486.94
2023-12-29T12:11:32.745Z,98484.25
2023-12-29T12:14:00.553Z,98484.84
2023-12-29T12:16:43.580Z,98482.16
2023-12-29T12:19:11.589Z,98471.41
2023-12-29T12:21:39.716Z,98469.78
2023-12-29T12:24:07.891Z,98466.88
2023-12-29T12:26:38.082Z,98472.94
2023-12-29T12:29:08.822Z,98469.19
2023-12-29T12:31:36.552Z,98463.81
2023-12-29T12:34:05.985Z,98465.09
2023-12-29T12:36:33.567Z,98464.41
2023-12-29T12:39:04.131Z,98471.41
2023-12-29T12:41:33.648Z,98469.31
2023-12-29T12:44:13.568Z,98465.34
2023-12-29T12:46:58.764Z,98460.47
2023-12-29T12:49:26.333Z,98467.31
2023-12-29T12:51:58.995Z,98467.91
2023-12-29T12:54:26.707Z,98462.91
2023-12-29T12:56:56.456Z,98466.88
2023-12-29T12:59:24.242Z,98471.31
2023-12-29T13:01:52.232Z,98475.84
2023-12-29T13:04:22.926Z,98485.41
2023-12-29T13:06:52.493Z,98475.19
2023-12-29T13:09:21.178Z,98475.13
2023-12-29T13:11:49.008Z,98487.53
2023-12-29T13:14:27.076Z,98476.75
2023-12-29T13:16:54.766Z,98483.91
2023-12-29T13:19:26.535Z,98475.94
2023-12-29T13:21:57.049Z,98475.41
2023-12-29T13:24:30.396Z,98480.06
2023-12-29T13:27:09.252Z,98478.41
2023-12-29T13:29:38.053Z,98486.47
2023-12-29T13:32:29.770Z,98472.22
2023-12-29T13:35:08.410Z,98472.44
2023-12-29T13:37:56.695Z,98481.31
2023-12-29T13:40:29.534Z,98474.09
2023-12-29T13:43:04.706Z,98480.50
2023-12-29T13:45:33.464Z,98472.94
2023-12-29T13:48:02.785Z,98475.13
2023-12-29T13:50:30.917Z,98483.66
2023-12-29T13:52:59.832Z,98472.22
2023-12-29T13:55:27.690Z,98477.94
2023-12-29T13:57:55.367Z,98473.25
2023-12-29T14:00:27.752Z,98466.88
2023-12-29T14:02:58.301Z,98475.13
2023-12-29T14:05:56.479Z,98477.22
2023-12-29T14:08:40.565Z,98482.59
2023-12-29T14:11:10.105Z,98478.88
2023-12-29T14:13:45.813Z,98485.88
2023-12-29T14:16:16.622Z,98485.06
2023-12-29T14:18:48.087Z,98489.16
2023-12-29T14:21:32.770Z,98491.72
2023-12-29T14:24:14.536Z,98490.09
2023-12-29T14:26:48.072Z,98489.84
2023-12-29T14:29:16.806Z,98485.28
2023-12-29T14:31:46.559Z,98492.31
2023-12-29T14:34:18.096Z,98491.13
2023-12-29T14:36:45.920Z,98486.34
2023-12-29T14:39:17.237Z,98494.88
2023-12-29T14:41:44.999Z,98493.59
2023-12-29T14:44:12.884Z,98493.81
2023-12-29T14:46:41.689Z,98503.25
2023-12-29T14:49:09.731Z,98499.78
2023-12-29T14:51:37.439Z,98509.44
2023-12-29T14:54:05.215Z,98503.03
2023-12-29T14:56:35.771Z,98509.44
2023-12-29T14:59:05.654Z,98512.97
2023-12-29T15:01:34.514Z,98510.03
2023-12-29T15:04:02.500Z,98503.38
2023-12-29T15:06:29.847Z,98511.91
2023-12-29T15:08:57.524Z,98504.22
2023-12-29T15:11:27.527Z,98506.50
2023-12-29T15:13:55.432Z,98499.72
2023-12-29T15:16:25.588Z,98501.59
2023-12-29T15:18:53.199Z,98501.00
2023-12-29T15:21:20.728Z,98503.94
2023-12-29T15:23:48.806Z,98492.63
2023-12-29T15:26:18.647Z,98501.69
2023-12-29T15:28:46.403Z,98499.03
2023-12-29T15:31:15.425Z,98503.81
2023-12-29T15:33:43.234Z,98499.50
2023-12-29T15:36:21.717Z,98493.31
2023-12-29T15:38:50.595Z,98500.53
2023-12-29T15:41:18.242Z,98506.72
2023-12-29T15:43:47.910Z,98489.81
2023-12-29T15:46:19.862Z,98497.06
2023-12-29T15:48:48.059Z,98493.53
2023-12-29T15:51:15.560Z,98491.09
2023-12-29T15:53:43.294Z,98492.97
2023-12-29T15:56:19.643Z,98500.75
2023-12-29T15:58:47.982Z,98499.16
2023-12-29T16:01:27.900Z,98501.81
2023-12-29T16:03:56.181Z,98495.66
2023-12-29T16:06:25.061Z,98498.56
2023-12-29T16:08:55.157Z,98500.16
2023-12-29T16:11:32.267Z,98493.78
2023-12-29T16:14:00.158Z,98495.66
2023-12-29T16:16:34.041Z,98494.81
2023-12-29T16:19:02.093Z,98496.69
2023-12-29T16:21:32.749Z,98501.00
2023-12-29T16:24:02.312Z,98507.41
2023-12-29T16:26:38.813Z,98501.22
2023-12-29T16:29:13.364Z,98497.75
2023-12-29T16:31:44.082Z,98493.19
2023-12-29T16:34:12.149Z,98492.59
2023-12-29T16:36:39.812Z,98495.28
2023-12-29T16:39:07.473Z,98496.09
2023-12-29T16:41:35.619Z,98497.16
2023-12-29T16:44:03.241Z,98492.81
2023-12-29T16:46:30.757Z,98487.44
2023-12-29T16:48:58.749Z,98482.94
2023-12-29T16:51:26.171Z,98498.19
2023-12-29T16:53:54.772Z,98490.97
2023-12-29T16:56:24.465Z,98490.38
2023-12-29T16:58:51.977Z,98479.66
2023-12-29T17:01:19.609Z,98482.56
2023-12-29T17:03:48.788Z,98480.69
2023-12-29T17:06:16.569Z,98477.78
2023-12-29T17:08:44.251Z,98478.84
2023-12-29T17:11:14.866Z,98471.81
2023-12-29T17:13:42.716Z,98471.81
2023-12-29T17:16:10.869Z,98472.63
2023-12-29T17:18:40.306Z,98471.81
2023-12-29T17:21:07.953Z,98476.38
2023-12-29T17:23:35.601Z,98476.38
2023-12-29T17:26:04.785Z,98484.41
2023-12-29T17:28:34.415Z,98480.94
2023-12-29T17:31:07.039Z,98488.16
2023-12-29T17:33:37.295Z,98486.28
2023-12-29T17:36:08.991Z,98479.28
2023-12-29T17:38:37.013Z,98490.00
2023-12-29T17:41:05.458Z,98496.22
2023-12-29T17:43:33.779Z,98480.34
2023-12-29T17:46:08.240Z,98489.81
2023-12-29T17:48:36.100Z,98485.34
2023-12-29T17:51:03.793Z,98482.56
2023-12-29T17:53:35.912Z,98484.63
2023-12-29T17:56:23.465Z,98490.00
2023-12-29T17:59:00.169Z,98478.47
2023-12-29T18:01:31.645Z,98483.81
2023-12-29T18:04:02.555Z,98491.06
2023-12-29T18:06:34.327Z,98491.88
2023-12-29T18:09:16.806Z,98492.94
2023-12-29T18:11:52.185Z,98486.50
2023-12-29T18:14:41.222Z,98482.69
2023-12-29T18:17:12.908Z,98480.94
2023-12-29T18:19:49.086Z,98478.25
2023-12-29T18:22:22.265Z,98484.63
2023-12-29T18:24:52.347Z,98482.19
2023-12-29T18:27:22.641Z,98480.81
2023-12-29T18:29:56.839Z,98479.66
2023-12-29T18:33:01.366Z,98478.66
2023-12-29T18:40:25.959Z,98477.38
2023-12-29T18:43:12.308Z,98474.31
2023-12-29T18:45:40.733Z,98472.47
2023-12-29T18:48:10.445Z,98471.63
2023-12-29T18:50:38.199Z,98476.19
2023-12-29T18:53:05.680Z,98480.50
2023-12-29T18:55:33.234Z,98484.00
2023-12-29T18:58:01.592Z,98482.13
2023-12-29T19:00:28.973Z,98482.94
2023-12-29T19:02:56.735Z,98490.19
2023-12-29T19:05:24.175Z,98494.72
2023-12-29T19:07:51.837Z,98485.88
2023-12-29T19:10:19.397Z,98484.81
2023-12-29T19:12:48.647Z,98476.78
2023-12-29T19:15:16.976Z,98478.66
2023-12-29T19:17:44.612Z,98477.44
2023-12-29T19:20:15.119Z,98479.91
2023-12-29T19:22:44.713Z,98484.81
2023-12-29T19:25:14.804Z,98475.16
2023-12-29T19:27:44.403Z,98476.78
2023-12-29T19:30:14.049Z,98479.34
2023-12-29T19:32:43.775Z,98472.59
2023-12-29T19:35:11.954Z,98481.47
2023-12-29T19:37:40.314Z,98485.16
2023-12-29T19:40:08.736Z,98490.91
2023-12-29T19:42:37.532Z,98484.25
2023-12-29T19:45:13.294Z,98494.41
2023-12-29T19:47:42.339Z,98490.22
2023-12-29T19:50:10.752Z,98491.72
2023-12-29T19:52:44.625Z,98488.56
2023-12-29T19:55:12.502Z,98486.94
2023-12-29T19:57:43.875Z,98488.56
2023-12-29T20:00:13.431Z,98495.66
2023-12-29T20:02:41.028Z,98494.50
2023-12-29T20:05:09.236Z,98490.19
2023-12-29T20:07:37.150Z,98490.78
2023-12-29T20:10:07.262Z,98489.59
2023-12-29T20:12:35.064Z,98490.41
2023-12-29T20:15:02.521Z,98500.31
2023-12-29T20:17:30.868Z,98489.97
2023-12-29T20:19:59.023Z,98489.59
2023-12-29T20:22:29.197Z,98495.22
2023-12-29T20:24:57.024Z,98491.25
2023-12-29T20:27:26.743Z,98490.41
2023-12-29T20:29:54.278Z,98493.56
2023-12-29T20:36:47.347Z,98487.50
2023-12-29T20:39:15.750Z,98502.78
2023-12-29T20:41:45.334Z,98491.00
2023-12-29T20:44:13.190Z,98498.22
2023-12-29T20:46:42.283Z,98501.97
2023-12-29T20:49:13.340Z,98508.16
2023-12-29T20:51:41.094Z,98495.34
2023-12-29T20:54:09.709Z,98505.69
2023-12-29T20:56:37.870Z,98488.31
2023-12-29T20:59:08.041Z,98493.69
2023-12-29T21:01:35.863Z,98491.25
2023-12-29T21:04:04.397Z,98491.25
2023-12-29T21:06:32.705Z,98488.09
2023-12-29T21:09:00.637Z,98487.50
2023-12-29T21:11:28.474Z,98492.66
2023-12-29T21:13:57.184Z,98504.06
2023-12-29T21:16:25.265Z,98500.91
2023-12-29T21:18:54.199Z,98509.34
2023-12-29T21:25:42.271Z,98496.59
2023-12-29T21:28:10.971Z,98484.69
2023-12-29T21:30:39.952Z,98491.94
2023-12-29T21:33:07.559Z,98489.56
2023-12-29T21:35:35.577Z,98496.22
2023-12-29T21:38:04.239Z,98492.69
2023-12-29T21:40:32.080Z,98496.66
2023-12-29T21:43:01.190Z,98498.50
2023-12-29T21:45:29.148Z,98499.56
2023-12-29T21:47:57.224Z,98501.66
2023-12-29T21:50:25.053Z,98496.47
2023-12-29T21:52:52.584Z,98494.63
2023-12-29T21:55:21.544Z,98501.81
2023-12-29T21:57:49.349Z,98499.09
2023-12-29T22:00:18.131Z,98496.28
2023-12-29T22:02:45.680Z,98498.34
2023-12-29T22:05:14.254Z,98500.44
2023-12-29T22:07:42.621Z,98495.09
2023-12-29T22:10:10.520Z,98488.91
2023-12-29T22:12:37.935Z,98495.31
2023-12-29T22:15:07.502Z,98491.81
2023-12-29T22:17:35.056Z,98488.31
2023-12-29T22:20:03.220Z,98484.00
2023-12-29T22:22:30.806Z,98483.19
2023-12-29T22:24:58.419Z,98485.88
2023-12-29T22:27:25.990Z,98483.19
2023-12-29T22:29:55.666Z,98493.91
2023-12-29T22:32:23.314Z,98488.56
2023-12-29T22:34:59.942Z,98487.72
2023-12-29T22:37:27.560Z,98486.91
2023-12-29T22:39:58.635Z,98492.28
2023-12-29T22:42:30.688Z,98489.38
2023-12-29T22:44:58.290Z,98494.94
2023-12-29T22:51:45.455Z,98495.16
2023-12-29T22:54:13.356Z,98489.00
2023-12-29T22:56:41.034Z,98490.88
2023-12-29T22:59:09.170Z,98487.38
2023-12-29T23:01:41.476Z,98493.53
2023-12-29T23:04:09.373Z,98484.69
2023-12-29T23:06:36.888Z,98481.19
2023-12-29T23:09:04.476Z,98479.31
2023-12-29T23:11:31.963Z,98485.72
2023-12-29T23:13:59.470Z,98475.00
2023-12-29T23:16:28.283Z,98478.50
2023-12-29T23:18:56.302Z,98475.00
2023-12-29T23:25:44.292Z,98475.25
2023-12-29T23:28:12.298Z,98466.38
2023-12-29T23:30:39.980Z,98456.47
2023-12-29T23:33:11.321Z,98476.06
2023-12-29T23:35:39.350Z,98472.56
2023-12-29T23:38:07.221Z,98463.69
2023-12-29T23:40:34.550Z,98474.19
2023-12-29T23:43:02.596Z,98484.09
2023-12-29T23:45:32.506Z,98483.28
2023-12-29T23:48:00.261Z,98483.28
2023-12-29T23:50:30.444Z,98493.19
2023-12-29T23:53:01.111Z,98501.25
2023-12-29T23:55:29.267Z,98490.50
2023-12-29T23:57:57.203Z,98491.53
